METAR Data
IDs: Format: Raw Decoded Include TAF

Data at: 1820 UTC 12 Dec 2018

METAR for:KIND (Indianapolis Intl, IN, US)
Text:KIND 121754Z 22018G23KT 10SM FEW050 BKN160 08/00 A2985 RMK AO2 SLP112 T00830000 10089 20000 58020
Temperature: 8.3°C ( 47°F)
Dewpoint: 0.0°C ( 32°F) [RH = 56%]
Pressure (altimeter):29.85 inches Hg (1010.9 mb) [Sea level pressure: 1011.2 mb]
Winds:from the SW (220 degrees) at 21 MPH (18 knots; 9.3 m/s) gusting to 26 MPH (23 knots; 11.8 m/s)
Visibility:10 or more sm (16+ km)
Ceiling:16000 feet AGL
Clouds: few clouds at 5000 feet AGL, broken clouds at 16000 feet AGL